createdAt,value
2023-01-04T00:01:40.121Z,62.36
2023-01-04T00:04:12.928Z,62.08
2023-01-04T00:06:46.196Z,62.12
2023-01-04T00:09:18.889Z,62.19
2023-01-04T00:11:51.317Z,62.39
2023-01-04T00:14:23.944Z,62.17
2023-01-04T00:16:56.982Z,62.02
2023-01-04T00:19:29.407Z,62.20
2023-01-04T00:22:01.771Z,62.38
2023-01-04T00:24:34.388Z,62.34
2023-01-04T00:27:07.116Z,62.67
2023-01-04T00:29:39.618Z,62.56
2023-01-04T00:32:12.351Z,62.62
2023-01-04T00:34:44.792Z,62.65
2023-01-04T00:37:17.279Z,62.51
2023-01-04T00:39:49.716Z,62.40
2023-01-04T00:42:22.009Z,62.49
2023-01-04T00:44:54.728Z,62.35
2023-01-04T00:47:27.381Z,62.33
2023-01-04T00:49:59.873Z,62.57
2023-01-04T00:52:32.477Z,62.63
2023-01-04T00:55:05.005Z,62.68
2023-01-04T00:57:37.351Z,62.87
2023-01-04T01:00:11.967Z,63.03
2023-01-04T01:02:44.677Z,62.90
2023-01-04T01:05:17.637Z,62.83
2023-01-04T01:07:50.512Z,62.86
2023-01-04T01:10:23.697Z,62.95
2023-01-04T01:12:56.431Z,63.11
2023-01-04T01:15:29.440Z,63.42
2023-01-04T01:18:02.345Z,63.55
2023-01-04T01:20:34.839Z,63.50
2023-01-04T01:23:07.541Z,63.47
2023-01-04T01:25:40.087Z,63.86
2023-01-04T01:28:12.603Z,63.63
2023-01-04T01:30:45.779Z,63.96
2023-01-04T01:33:18.481Z,64.30
2023-01-04T01:35:51.039Z,64.14
2023-01-04T01:38:23.958Z,64.32
2023-01-04T01:40:56.548Z,64.96
2023-01-04T01:43:53.089Z,65.05
2023-01-04T01:46:31.150Z,65.37
2023-01-04T01:49:10.533Z,65.60
2023-01-04T01:51:43.923Z,65.80
2023-01-04T01:54:20.724Z,65.78
2023-01-04T01:56:54.994Z,65.85
2023-01-04T01:59:28.286Z,65.98
2023-01-04T02:02:00.820Z,66.09
2023-01-04T02:04:34.099Z,66.16
2023-01-04T02:07:07.437Z,66.35
2023-01-04T02:09:41.112Z,66.41
2023-01-04T02:12:15.677Z,66.81
2023-01-04T02:14:51.972Z,66.72
2023-01-04T02:17:37.233Z,66.80
2023-01-04T02:20:29.328Z,66.93
2023-01-04T02:23:47.317Z,67.04
2023-01-04T02:26:49.873Z,67.16
2023-01-04T02:29:49.199Z,67.25
2023-01-04T02:32:34.419Z,67.55
2023-01-04T02:35:17.913Z,67.64
2023-01-04T02:37:54.781Z,67.65
2023-01-04T02:40:34.950Z,67.53
2023-01-04T02:43:34.028Z,67.72
2023-01-04T02:46:10.889Z,67.89
2023-01-04T02:49:01.482Z,67.87
2023-01-04T02:51:36.628Z,68.41
2023-01-04T02:54:12.012Z,68.43
2023-01-04T02:57:02.644Z,68.81
2023-01-04T02:59:58.957Z,68.73
2023-01-04T03:03:21.927Z,69.58
2023-01-04T03:06:18.545Z,69.45
2023-01-04T03:09:04.323Z,69.52
2023-01-04T03:12:01.498Z,69.49
2023-01-04T03:14:39.999Z,70.04
2023-01-04T03:17:17.083Z,69.86
2023-01-04T03:19:57.030Z,70.62
2023-01-04T03:22:52.610Z,70.85
2023-01-04T03:25:48.364Z,70.44
2023-01-04T03:28:41.930Z,70.51
2023-01-04T03:31:38.627Z,70.29
2023-01-04T03:34:29.242Z,70.42
2023-01-04T03:37:10.158Z,70.21
2023-01-04T03:40:28.577Z,69.95
2023-01-04T03:43:23.907Z,70.06
2023-01-04T03:46:19.361Z,69.83
2023-01-04T03:48:52.286Z,69.61
2023-01-04T03:51:28.224Z,69.71
2023-01-04T03:54:05.696Z,69.77
2023-01-04T03:56:42.967Z,69.80
2023-01-04T03:59:15.963Z,69.94
2023-01-04T04:01:48.553Z,70.07
2023-01-04T04:04:38.994Z,69.51
2023-01-04T04:07:29.074Z,69.59
2023-01-04T04:10:01.575Z,69.17
2023-01-04T04:12:34.145Z,69.22
2023-01-04T04:15:07.781Z,68.87
2023-01-04T04:17:40.785Z,68.58
2023-01-04T04:20:14.548Z,68.05
2023-01-04T04:22:47.526Z,68.32
2023-01-04T04:25:20.404Z,68.70
2023-01-04T04:27:53.749Z,68.59
2023-01-04T04:30:26.598Z,68.73
2023-01-04T04:32:59.572Z,69.59
2023-01-04T04:35:31.995Z,69.66
2023-01-04T04:38:04.358Z,69.54
2023-01-04T04:40:54.115Z,69.55
2023-01-04T04:43:27.574Z,69.80
2023-01-04T04:46:00.527Z,69.82
2023-01-04T04:48:32.966Z,70.02
2023-01-04T04:51:06.051Z,69.90
2023-01-04T04:53:38.619Z,69.75
2023-01-04T04:56:11.721Z,69.81
2023-01-04T04:58:45.443Z,69.76
2023-01-04T05:01:18.199Z,69.73
2023-01-04T05:03:51.147Z,69.35
2023-01-04T05:06:23.964Z,69.52
2023-01-04T05:08:56.285Z,69.60
2023-01-04T05:11:46.241Z,69.31
2023-01-04T05:14:19.039Z,69.09
2023-01-04T05:16:51.568Z,69.04
2023-01-04T05:19:24.277Z,68.82
2023-01-04T05:21:57.074Z,69.03
2023-01-04T05:24:29.549Z,68.84
2023-01-04T05:27:02.242Z,68.79
2023-01-04T05:29:52.537Z,68.72
2023-01-04T05:32:25.297Z,68.53
2023-01-04T05:34:57.636Z,68.60
2023-01-04T05:37:30.012Z,68.34
2023-01-04T05:40:02.976Z,68.02
2023-01-04T05:42:35.996Z,68.33
2023-01-04T05:45:10.327Z,68.36
2023-01-04T05:47:44.052Z,68.33
2023-01-04T05:50:16.397Z,68.83
2023-01-04T05:52:49.996Z,69.15
2023-01-04T05:55:23.225Z,69.24
2023-01-04T05:57:56.825Z,68.95
2023-01-04T06:00:29.426Z,68.77
2023-01-04T06:03:02.037Z,68.83
2023-01-04T06:05:35.022Z,68.66
2023-01-04T06:08:13.884Z,68.82
2023-01-04T06:10:58.372Z,68.92
2023-01-04T06:13:56.059Z,68.70
2023-01-04T06:16:31.239Z,68.84
2023-01-04T06:19:04.161Z,68.77
2023-01-04T06:21:36.519Z,68.49
2023-01-04T06:24:09.865Z,68.40
2023-01-04T06:26:44.462Z,68.63
2023-01-04T06:29:18.098Z,68.72
2023-01-04T06:31:50.718Z,69.01
2023-01-04T06:34:30.219Z,68.85
2023-01-04T06:37:03.638Z,68.93
2023-01-04T06:39:37.225Z,68.91
2023-01-04T06:42:31.603Z,69.30
2023-01-04T06:45:04.091Z,68.96
2023-01-04T06:47:36.644Z,69.01
2023-01-04T06:50:10.207Z,68.82
2023-01-04T06:52:47.059Z,69.03
2023-01-04T06:55:19.532Z,69.10
2023-01-04T06:57:59.082Z,68.97
2023-01-04T07:00:32.375Z,68.65
2023-01-04T07:03:13.474Z,68.83
2023-01-04T07:05:47.876Z,68.96
2023-01-04T07:08:20.260Z,69.19
2023-01-04T07:10:53.119Z,68.92
2023-01-04T07:13:25.879Z,69.06
2023-01-04T07:15:58.461Z,68.96
2023-01-04T07:18:30.794Z,69.34
2023-01-04T07:21:03.537Z,69.22
2023-01-04T07:23:36.044Z,69.21
2023-01-04T07:26:08.670Z,69.34
2023-01-04T07:28:58.969Z,69.01
2023-01-04T07:31:31.952Z,69.01
2023-01-04T07:34:04.323Z,68.95
2023-01-04T07:36:37.032Z,68.90
2023-01-04T07:39:12.530Z,69.13
2023-01-04T07:41:45.590Z,69.41
2023-01-04T07:44:18.872Z,69.37
2023-01-04T07:46:51.954Z,69.78
2023-01-04T07:49:24.721Z,69.88
2023-01-04T07:51:57.396Z,69.73
2023-01-04T07:54:30.127Z,69.78
2023-01-04T07:57:02.502Z,69.52
2023-01-04T07:59:34.987Z,69.60
2023-01-04T08:02:08.602Z,70.09
2023-01-04T08:04:41.091Z,70.42
2023-01-04T08:07:14.120Z,70.69
2023-01-04T08:09:46.526Z,70.73
2023-01-04T08:12:19.000Z,70.36
2023-01-04T08:14:51.784Z,70.27
2023-01-04T08:17:24.174Z,70.19
2023-01-04T08:19:56.464Z,70.90
2023-01-04T08:22:29.251Z,71.14
2023-01-04T08:25:02.010Z,70.83
2023-01-04T08:27:34.975Z,71.15
2023-01-04T08:30:09.615Z,71.42
2023-01-04T08:32:43.328Z,71.04
2023-01-04T08:35:15.870Z,70.96
2023-01-04T08:37:48.397Z,71.19
2023-01-04T08:40:21.189Z,71.02
2023-01-04T08:42:53.759Z,70.88
2023-01-04T08:45:27.767Z,70.74
2023-01-04T08:48:00.479Z,70.89
2023-01-04T08:50:33.340Z,70.91
2023-01-04T08:53:06.105Z,70.64
2023-01-04T08:55:38.500Z,71.03
2023-01-04T08:58:11.421Z,71.01
2023-01-04T09:00:43.901Z,71.05
2023-01-04T09:03:17.088Z,71.14
2023-01-04T09:05:50.059Z,71.22
2023-01-04T09:08:23.557Z,71.24
2023-01-04T09:10:56.066Z,71.39
2023-01-04T09:13:28.441Z,71.52
2023-01-04T09:16:04.785Z,71.10
2023-01-04T09:18:37.874Z,70.85
2023-01-04T09:21:12.723Z,71.15
2023-01-04T09:23:44.001Z,70.88
2023-01-04T09:26:18.287Z,70.80
2023-01-04T09:28:51.657Z,70.67
2023-01-04T09:31:27.351Z,70.70
2023-01-04T09:34:14.100Z,70.03
2023-01-04T09:36:50.756Z,70.03
2023-01-04T09:39:23.820Z,70.05
2023-01-04T09:42:00.142Z,70.30
2023-01-04T09:47:42.731Z,69.68
2023-01-04T09:50:19.639Z,70.12
2023-01-04T09:53:02.346Z,69.84
2023-01-04T09:55:41.374Z,69.43
2023-01-04T09:58:24.810Z,69.45
2023-01-04T10:01:04.987Z,69.78
2023-01-04T10:03:40.196Z,69.99
2023-01-04T10:06:16.043Z,70.36
2023-01-04T10:08:48.807Z,70.17
2023-01-04T10:11:32.351Z,69.95
2023-01-04T10:14:30.985Z,69.72
2023-01-04T10:17:35.477Z,69.58
2023-01-04T10:23:51.843Z,69.16
2023-01-04T10:26:29.225Z,69.05
2023-01-04T10:29:27.126Z,69.35
2023-01-04T10:32:05.570Z,69.05
2023-01-04T10:34:43.279Z,69.10
2023-01-04T10:37:21.181Z,69.55
2023-01-04T10:39:58.104Z,69.09
2023-01-04T10:42:35.192Z,69.22
2023-01-04T10:45:17.743Z,69.06
2023-01-04T10:48:02.338Z,69.02
2023-01-04T10:50:42.773Z,68.86
2023-01-04T10:53:21.800Z,68.57
2023-01-04T10:56:25.914Z,68.66
2023-01-04T10:59:01.322Z,68.43
2023-01-04T11:01:39.702Z,68.48
2023-01-04T11:04:20.699Z,68.65
2023-01-04T11:06:59.181Z,68.48
2023-01-04T11:09:36.743Z,69.05
2023-01-04T11:12:16.369Z,69.16
2023-01-04T11:14:49.446Z,69.96
2023-01-04T11:17:24.685Z,71.56
2023-01-04T11:19:57.521Z,72.36
2023-01-04T11:22:37.618Z,72.74
2023-01-04T11:28:18.224Z,74.68
2023-01-04T11:30:56.729Z,74.79
2023-01-04T11:33:29.090Z,74.35
2023-01-04T11:36:02.995Z,75.19
2023-01-04T11:38:35.489Z,75.75
2023-01-04T11:41:09.887Z,76.05
2023-01-04T11:43:57.288Z,76.85
2023-01-04T11:46:30.978Z,76.96
2023-01-04T11:49:03.807Z,76.87
2023-01-04T11:51:41.156Z,77.41
2023-01-04T11:54:22.433Z,78.01
2023-01-04T11:57:20.412Z,78.52
2023-01-04T12:00:11.489Z,79.09
2023-01-04T12:03:01.148Z,79.39
2023-01-04T12:05:35.168Z,79.91
2023-01-04T12:08:13.667Z,79.65
2023-01-04T12:10:46.545Z,80.30
2023-01-04T12:13:19.675Z,80.85
2023-01-04T12:16:03.270Z,80.88
2023-01-04T12:18:39.400Z,80.13
2023-01-04T12:21:18.468Z,81.01
2023-01-04T12:23:51.830Z,80.73
2023-01-04T12:26:24.843Z,82.03
2023-01-04T12:29:34.225Z,82.51
2023-01-04T12:32:37.636Z,82.80
2023-01-04T12:36:06.567Z,83.00
2023-01-04T12:39:07.650Z,82.09
2023-01-04T12:42:18.004Z,82.40
2023-01-04T12:45:21.560Z,82.47
2023-01-04T12:48:14.936Z,82.14
2023-01-04T12:51:32.902Z,83.57
2023-01-04T12:54:07.049Z,83.81
2023-01-04T12:57:13.908Z,83.70
2023-01-04T12:59:57.981Z,83.49
2023-01-04T13:02:32.226Z,83.52
2023-01-04T13:05:57.599Z,84.42
2023-01-04T13:08:19.140Z,85.10
2023-01-04T13:10:53.984Z,85.18
2023-01-04T13:13:32.348Z,85.33
2023-01-04T13:16:19.119Z,85.62
2023-01-04T13:18:54.198Z,85.30
2023-01-04T13:21:33.194Z,85.87
2023-01-04T13:24:16.546Z,85.98
2023-01-04T13:26:49.814Z,85.84
2023-01-04T13:29:25.549Z,86.09
2023-01-04T13:32:00.525Z,86.65
2023-01-04T13:34:37.136Z,87.98
2023-01-04T13:37:23.178Z,88.40
2023-01-04T13:40:12.925Z,88.24
2023-01-04T13:42:48.416Z,87.78
2023-01-04T13:45:43.180Z,87.72
2023-01-04T13:48:20.690Z,88.87
2023-01-04T13:51:05.210Z,88.37
2023-01-04T13:53:38.215Z,88.03
2023-01-04T13:56:21.743Z,88.58
2023-01-04T13:58:54.540Z,88.83
2023-01-04T14:01:29.249Z,89.33
2023-01-04T14:04:03.672Z,89.54
2023-01-04T14:06:41.212Z,88.85
2023-01-04T14:09:20.463Z,88.92
2023-01-04T14:12:09.625Z,89.13
2023-01-04T14:14:50.325Z,89.51
2023-01-04T14:17:32.934Z,89.66
2023-01-04T14:20:08.003Z,89.75
2023-01-04T14:22:54.267Z,90.56
2023-01-04T14:25:46.009Z,90.80
2023-01-04T14:28:38.139Z,90.50
2023-01-04T14:31:36.809Z,90.91
2023-01-04T14:34:15.946Z,90.73
2023-01-04T14:36:48.620Z,90.49
2023-01-04T14:39:36.210Z,89.96
2023-01-04T14:42:26.797Z,91.23
2023-01-04T14:44:59.320Z,91.92
2023-01-04T14:47:32.303Z,91.35
2023-01-04T14:50:05.273Z,91.11
2023-01-04T14:52:39.018Z,91.56
2023-01-04T14:55:16.337Z,91.34
2023-01-04T14:57:49.427Z,91.61
2023-01-04T15:00:23.868Z,91.71
2023-01-04T15:02:57.937Z,91.93
2023-01-04T15:05:35.674Z,92.46
2023-01-04T15:08:13.312Z,93.10
2023-01-04T15:10:46.332Z,93.29
2023-01-04T15:13:19.055Z,93.13
2023-01-04T15:15:52.338Z,93.09
2023-01-04T15:18:25.082Z,93.35
2023-01-04T15:20:57.956Z,93.50
2023-01-04T15:23:31.272Z,93.40
2023-01-04T15:26:08.449Z,92.98
2023-01-04T15:28:41.258Z,93.09
2023-01-04T15:31:15.583Z,93.09
2023-01-04T15:33:48.380Z,93.59
2023-01-04T15:36:24.005Z,94.21
2023-01-04T15:38:58.330Z,94.15
2023-01-04T15:41:48.095Z,93.45
2023-01-04T15:44:20.573Z,93.32
2023-01-04T15:46:53.525Z,93.64
2023-01-04T15:49:26.385Z,93.56
2023-01-04T15:51:59.123Z,93.73
2023-01-04T15:54:32.004Z,94.42
2023-01-04T15:57:04.991Z,94.28
2023-01-04T15:59:37.699Z,94.10
2023-01-04T16:02:12.237Z,94.23
2023-01-04T16:04:47.371Z,94.08
2023-01-04T16:07:20.245Z,94.58
2023-01-04T16:09:53.264Z,95.02
2023-01-04T16:12:44.560Z,95.15
2023-01-04T16:15:20.757Z,94.84
2023-01-04T16:17:53.342Z,94.20
2023-01-04T16:20:26.129Z,94.59
2023-01-04T16:22:58.553Z,95.07
2023-01-04T16:25:31.567Z,94.99
2023-01-04T16:28:04.722Z,94.67
2023-01-04T16:30:37.788Z,94.75
2023-01-04T16:33:10.217Z,94.93
2023-01-04T16:35:42.685Z,95.23
2023-01-04T16:38:15.359Z,95.38
2023-01-04T16:40:57.178Z,95.70
2023-01-04T16:43:30.816Z,96.10
2023-01-04T16:46:23.595Z,96.06
2023-01-04T16:48:57.923Z,95.61
2023-01-04T16:51:32.902Z,95.72
2023-01-04T16:54:07.854Z,95.94
2023-01-04T16:56:41.500Z,96.69
2023-01-04T16:59:16.209Z,97.22
2023-01-04T17:01:57.369Z,97.67
2023-01-04T17:04:30.674Z,97.27
2023-01-04T17:07:05.328Z,97.67
2023-01-04T17:09:41.314Z,97.52
2023-01-04T17:15:41.166Z,97.71
2023-01-04T17:18:00.823Z,98.43
2023-01-04T17:20:33.360Z,98.77
2023-01-04T17:23:05.825Z,98.27
2023-01-04T17:25:38.255Z,98.23
2023-01-04T17:28:11.145Z,98.05
2023-01-04T17:30:44.281Z,97.94
2023-01-04T17:33:16.797Z,98.23
2023-01-04T17:35:49.422Z,98.37
2023-01-04T17:38:22.012Z,98.99
2023-01-04T17:40:54.562Z,98.70
2023-01-04T17:43:27.380Z,98.25
2023-01-04T17:46:04.237Z,98.12
2023-01-04T17:48:39.832Z,98.00
2023-01-04T17:51:14.916Z,97.70
2023-01-04T17:53:48.120Z,97.86
2023-01-04T17:56:21.437Z,98.43
2023-01-04T17:58:54.429Z,98.74
2023-01-04T18:01:28.420Z,98.62
2023-01-04T18:04:05.631Z,98.15
2023-01-04T18:06:38.825Z,97.92
2023-01-04T18:09:15.506Z,97.81
2023-01-04T18:11:51.331Z,97.62
2023-01-04T18:14:27.800Z,97.63
2023-01-04T18:17:00.332Z,97.09
2023-01-04T18:19:33.600Z,97.14
2023-01-04T18:22:06.546Z,97.07
2023-01-04T18:24:41.976Z,97.31
2023-01-04T18:27:25.260Z,96.94
2023-01-04T18:29:59.166Z,96.96
2023-01-04T18:32:31.906Z,96.57
2023-01-04T18:35:05.643Z,97.00
2023-01-04T18:37:38.395Z,97.26
2023-01-04T18:40:13.339Z,97.15
2023-01-04T18:42:48.748Z,96.76
2023-01-04T18:45:22.997Z,97.11
2023-01-04T18:47:55.390Z,97.05
2023-01-04T18:50:28.232Z,97.23
2023-01-04T18:53:01.614Z,96.85
2023-01-04T18:55:33.967Z,96.03
2023-01-04T18:58:42.319Z,95.70
2023-01-04T19:01:34.630Z,95.84
2023-01-04T19:04:45.277Z,95.93
2023-01-04T19:07:43.978Z,95.51
2023-01-04T19:10:31.879Z,95.62
2023-01-04T19:13:12.919Z,96.63
2023-01-04T19:15:47.825Z,97.38
2023-01-04T19:18:20.578Z,98.05
2023-01-04T19:20:53.365Z,97.85
2023-01-04T19:23:26.594Z,97.70
2023-01-04T19:25:59.075Z,97.93
2023-01-04T19:28:31.806Z,97.76
2023-01-04T19:31:08.878Z,97.76
2023-01-04T19:33:42.306Z,98.01
2023-01-04T19:36:16.823Z,98.28
2023-01-04T19:38:51.790Z,97.97
2023-01-04T19:41:33.749Z,97.76
2023-01-04T19:44:08.873Z,97.78
2023-01-04T19:49:38.225Z,97.20
2023-01-04T19:52:10.709Z,97.53
2023-01-04T19:54:43.893Z,97.61
2023-01-04T19:57:35.008Z,97.23
2023-01-04T20:03:34.290Z,97.29
2023-01-04T20:06:09.354Z,97.29
2023-01-04T20:08:42.666Z,97.30
2023-01-04T20:11:15.445Z,97.59
2023-01-04T20:13:47.966Z,97.65
2023-01-04T20:16:20.478Z,97.54
2023-01-04T20:18:54.862Z,98.44
2023-01-04T20:21:27.340Z,98.67
2023-01-04T20:24:01.070Z,97.99
2023-01-04T20:26:35.705Z,97.55
2023-01-04T20:29:08.400Z,96.98
2023-01-04T20:31:45.628Z,96.87
2023-01-04T20:34:18.444Z,96.76
2023-01-04T20:36:51.774Z,96.77
2023-01-04T20:39:25.045Z,96.53
2023-01-04T20:42:15.558Z,96.06
2023-01-04T20:44:48.038Z,95.92
2023-01-04T20:47:21.107Z,95.97
2023-01-04T20:49:53.674Z,95.88
2023-01-04T20:52:26.187Z,96.06
2023-01-04T20:54:59.046Z,96.39
2023-01-04T20:57:32.421Z,96.06
2023-01-04T21:00:05.463Z,95.79
2023-01-04T21:02:38.962Z,95.11
2023-01-04T21:05:12.774Z,95.29
2023-01-04T21:07:45.721Z,95.75
2023-01-04T21:10:18.290Z,95.43
2023-01-04T21:12:50.889Z,94.99
2023-01-04T21:15:23.707Z,95.47
2023-01-04T21:17:56.206Z,95.03
2023-01-04T21:20:28.734Z,95.63
2023-01-04T21:23:03.083Z,96.34
2023-01-04T21:25:39.543Z,96.31
2023-01-04T21:28:12.791Z,96.62
2023-01-04T21:30:46.702Z,96.79
2023-01-04T21:33:21.434Z,96.78
2023-01-04T21:35:52.668Z,96.46
2023-01-04T21:38:25.615Z,96.24
2023-01-04T21:40:58.038Z,96.82
2023-01-04T21:43:30.752Z,96.57
2023-01-04T21:46:09.264Z,96.50
2023-01-04T21:48:41.999Z,96.44
2023-01-04T21:51:15.601Z,96.25
2023-01-04T21:53:48.481Z,95.51
2023-01-04T21:56:23.110Z,94.40
2023-01-04T21:58:55.928Z,94.68
2023-01-04T22:01:34.927Z,94.32
2023-01-04T22:04:08.573Z,94.73
2023-01-04T22:06:42.187Z,95.14
2023-01-04T22:09:15.017Z,94.66
2023-01-04T22:11:48.516Z,94.70
2023-01-04T22:14:21.616Z,94.96
2023-01-04T22:16:54.341Z,95.32
2023-01-04T22:19:26.943Z,95.66
2023-01-04T22:21:59.457Z,95.44
2023-01-04T22:24:37.473Z,96.44
2023-01-04T22:27:10.467Z,96.67
2023-01-04T22:29:42.945Z,96.35
2023-01-04T22:32:15.435Z,96.66
2023-01-04T22:34:48.492Z,96.55
2023-01-04T22:37:21.024Z,96.51
2023-01-04T22:39:53.791Z,96.02
2023-01-04T22:42:26.393Z,96.60
2023-01-04T22:44:58.955Z,96.04
2023-01-04T22:47:31.694Z,95.71
2023-01-04T22:50:04.652Z,95.60
2023-01-04T22:52:37.083Z,94.95
2023-01-04T22:55:10.408Z,94.88
2023-01-04T22:57:44.198Z,95.83
2023-01-04T23:00:17.916Z,95.93
2023-01-04T23:02:50.507Z,96.26
2023-01-04T23:05:23.231Z,96.31
2023-01-04T23:07:55.640Z,95.94
2023-01-04T23:10:28.345Z,95.93
2023-01-04T23:13:00.634Z,95.89
2023-01-04T23:15:33.679Z,96.03
2023-01-04T23:18:06.731Z,95.89
2023-01-04T23:20:39.162Z,95.86
2023-01-04T23:23:11.576Z,95.94
2023-01-04T23:25:44.117Z,96.11
2023-01-04T23:28:16.550Z,95.98
2023-01-04T23:30:49.401Z,96.15
2023-01-04T23:33:21.705Z,95.99
2023-01-04T23:35:54.120Z,95.73
2023-01-04T23:38:26.408Z,94.50
2023-01-04T23:40:59.219Z,93.65
2023-01-04T23:43:31.643Z,92.39
2023-01-04T23:46:08.210Z,91.11
2023-01-04T23:48:40.708Z,91.27
2023-01-04T23:51:14.962Z,92.01
2023-01-04T23:53:47.326Z,93.13
2023-01-04T23:56:19.767Z,93.00
2023-01-04T23:58:52.035Z,92.34
